This is the latest recevied weather packets stored in our database for station/object W4GAP. If no packets are shown the sender has not sent any weather packets the latest 1 day(s).
| Time | Temp. | Humidity | Pressure | Rain* | Wind** | Luminosity | Snow |
|---|---|---|---|---|---|---|---|
| 1777999914 | 26.11° C | 40% | 1012.9 hPa | 0 mm | 0.45 m/s, 302° | 760 W/m² | - |
| 1777999610 | 25° C | 41% | 1012.9 hPa | 0 mm | 0 m/s | 773 W/m² | - |
| 1777999307 | 25° C | 40% | 1012.8 hPa | 0 mm | 1.79 m/s, 238° | 776 W/m² | - |
| 1777999005 | 25.56° C | 41% | 1013.1 hPa | 0 mm | 0.45 m/s, 302° | 788 W/m² | - |
| 1777998703 | 25.56° C | 41% | 1012.9 hPa | 0 mm | 1.34 m/s, 270° | 781 W/m² | - |
| 1777998400 | 25.56° C | 45% | 1013.2 hPa | 0 mm | 0.45 m/s, 302° | 776 W/m² | - |
| 1777998098 | 25.56° C | 42% | 1013 hPa | 0 mm | 1.34 m/s, 267° | 749 W/m² | - |
| 1777997795 | 25.56° C | 43% | 1013.2 hPa | 0 mm | 0.45 m/s, 270° | 499 W/m² | - |
| 1777997492 | 25° C | 43% | 1013.3 hPa | 0 mm | 0.45 m/s, 259° | 776 W/m² | - |
| 1777997190 | 25° C | 44% | 1013.4 hPa | 0 mm | 0.89 m/s, 244° | 800 W/m² | - |
| 1777996887 | 24.44° C | 43% | 1013.3 hPa | 0 mm | 0.45 m/s, 300° | 769 W/m² | - |
| 1777996583 | 25° C | 42% | 1013.7 hPa | 0 mm | 0.45 m/s, 247° | 580 W/m² | - |
| 1777996279 | 23.89° C | 44% | 1013.4 hPa | 0 mm | 1.34 m/s, 197° | 202 W/m² | - |
| 1777995975 | 23.89° C | 43% | 1013.3 hPa | 0 mm | 0.89 m/s, 298° | 222 W/m² | - |
| 1777995672 | 23.89° C | 45% | 1013.3 hPa | 0 mm | 0.45 m/s, 299° | 73 W/m² | - |
| 1777995369 | 23.89° C | 46% | 1013.3 hPa | 0 mm | 0.45 m/s, 304° | 42 W/m² | - |
| 1777995066 | 23.33° C | 46% | 1013.3 hPa | 0 mm | 0.89 m/s, 295° | 79 W/m² | - |
| 1777994773 | 23.33° C | 48% | 1013.4 hPa | 0 mm | 0 m/s | 42 W/m² | - |
| 1777994459 | 22.78° C | 48% | 1013.2 hPa | 0 mm | 0 m/s | 86 W/m² | - |
| 1777994154 | 22.22° C | 51% | 1013.2 hPa | 0 mm | 0 m/s | 51 W/m² | - |
| 1777993852 | 21.67° C | 51% | 1013.4 hPa | 0 mm | 0 m/s | 35 W/m² | - |
| 1777993548 | 21.11° C | 56% | 1013.7 hPa | 0 mm | 0 m/s | 117 W/m² | - |
| 1777993244 | 21.11° C | 58% | 1013.5 hPa | 0 mm | 0 m/s | 119 W/m² | - |
| 1777992940 | 20.56° C | 58% | 1013.4 hPa | 0 mm | 0 m/s | 77 W/m² | - |
| 1777992639 | 20.56° C | 57% | 1013.7 hPa | 0 mm | 0 m/s | 186 W/m² | - |
* Rain latest hour (hover to see other rain measurements)
** Current wind speed in m/s (hover to see current wind gust speed)